createdAt,value
2022-09-06T00:00:26.468Z,1.98
2022-09-06T00:02:53.602Z,2.17
2022-09-06T00:05:20.962Z,2.67
2022-09-06T00:07:48.059Z,2.83
2022-09-06T00:10:15.456Z,2.60
2022-09-06T00:12:42.458Z,2.95
2022-09-06T00:15:10.108Z,2.83
2022-09-06T00:17:37.228Z,2.50
2022-09-06T00:20:09.143Z,2.40
2022-09-06T00:22:37.741Z,2.28
2022-09-06T00:25:06.548Z,2.55
2022-09-06T00:27:34.636Z,2.88
2022-09-06T00:30:01.811Z,2.75
2022-09-06T00:32:28.785Z,2.45
2022-09-06T00:34:55.817Z,3.05
2022-09-06T00:37:22.830Z,2.42
2022-09-06T00:39:49.848Z,2.63
2022-09-06T00:42:16.920Z,2.42
2022-09-06T00:44:43.977Z,2.55
2022-09-06T00:47:11.180Z,3.00
2022-09-06T00:49:45.034Z,2.72
2022-09-06T00:52:15.440Z,3.08
2022-09-06T00:54:43.304Z,2.78
2022-09-06T00:57:11.038Z,2.83
2022-09-06T00:59:39.905Z,3.03
2022-09-06T01:02:09.368Z,3.03
2022-09-06T01:04:39.275Z,3.00
2022-09-06T01:07:31.704Z,3.15
2022-09-06T01:10:14.559Z,3.13
2022-09-06T01:13:12.828Z,3.58
2022-09-06T01:16:15.137Z,3.65
2022-09-06T01:19:03.214Z,3.95
2022-09-06T01:22:02.194Z,3.22
2022-09-06T01:24:58.576Z,3.45
2022-09-06T01:28:25.070Z,3.58
2022-09-06T01:31:11.763Z,3.58
2022-09-06T01:33:58.472Z,3.53
2022-09-06T01:36:32.099Z,3.08
2022-09-06T01:38:59.114Z,3.08
2022-09-06T01:41:26.577Z,3.28
2022-09-06T01:43:55.550Z,2.92
2022-09-06T01:46:58.762Z,3.47
2022-09-06T01:50:12.435Z,3.50
2022-09-06T01:52:58.875Z,3.35
2022-09-06T01:56:03.156Z,3.20
2022-09-06T01:59:07.291Z,2.90
2022-09-06T02:02:03.773Z,3.35
2022-09-06T02:04:51.935Z,3.67
2022-09-06T02:07:32.570Z,3.35
2022-09-06T02:10:39.338Z,3.53
2022-09-06T02:13:08.611Z,3.10
2022-09-06T02:15:44.539Z,3.47
2022-09-06T02:18:24.181Z,3.58
2022-09-06T02:20:58.766Z,3.90
2022-09-06T02:23:31.272Z,3.53
2022-09-06T02:26:21.107Z,3.83
2022-09-06T02:28:48.782Z,3.50
2022-09-06T02:31:38.032Z,4.00
2022-09-06T02:34:05.826Z,4.18
2022-09-06T02:36:35.367Z,3.53
2022-09-06T02:39:02.383Z,3.63
2022-09-06T02:41:31.086Z,4.20
2022-09-06T02:43:58.260Z,3.75
2022-09-06T02:46:25.403Z,4.07
2022-09-06T02:48:52.597Z,4.45
2022-09-06T02:51:20.634Z,4.40
2022-09-06T02:53:48.002Z,4.38
2022-09-06T02:56:15.077Z,4.50
2022-09-06T02:58:42.113Z,4.35
2022-09-06T03:01:09.340Z,4.65
2022-09-06T03:03:36.605Z,4.75
2022-09-06T03:06:03.683Z,4.45
2022-09-06T03:08:33.629Z,4.80
2022-09-06T03:11:01.671Z,4.90
2022-09-06T03:13:29.219Z,5.47
2022-09-06T03:15:59.365Z,5.38
2022-09-06T03:18:29.758Z,5.40
2022-09-06T03:20:57.998Z,6.03
2022-09-06T03:23:28.127Z,5.80
2022-09-06T03:25:56.123Z,5.75
2022-09-06T03:28:23.972Z,6.00
2022-09-06T03:30:52.116Z,5.95
2022-09-06T03:33:20.776Z,5.70
2022-09-06T03:35:54.839Z,5.38
2022-09-06T03:38:23.686Z,6.55
2022-09-06T03:40:52.848Z,6.28
2022-09-06T03:43:23.030Z,6.10
2022-09-06T03:45:57.193Z,6.25
2022-09-06T03:48:29.346Z,5.95
2022-09-06T03:50:58.752Z,6.28
2022-09-06T03:53:27.527Z,6.68
2022-09-06T03:55:57.554Z,6.63
2022-09-06T03:58:29.970Z,6.55
2022-09-06T04:01:06.951Z,6.35
2022-09-06T04:03:35.322Z,6.20
2022-09-06T04:06:03.267Z,6.72
2022-09-06T04:08:30.668Z,5.65
2022-09-06T04:10:59.125Z,6.90
2022-09-06T04:13:28.576Z,6.75
2022-09-06T04:15:55.782Z,6.60
2022-09-06T04:18:22.907Z,7.10
2022-09-06T04:20:52.995Z,6.30
2022-09-06T04:23:21.325Z,7.15
2022-09-06T04:25:54.436Z,6.25
2022-09-06T04:28:22.397Z,7.20
2022-09-06T04:31:04.571Z,6.80
2022-09-06T04:33:34.056Z,6.75
2022-09-06T04:36:03.465Z,6.78
2022-09-06T04:38:34.990Z,7.30
2022-09-06T04:41:01.990Z,7.50
2022-09-06T04:43:29.019Z,6.90
2022-09-06T04:45:56.131Z,7.82
2022-09-06T04:48:23.220Z,7.05
2022-09-06T04:50:50.223Z,7.00
2022-09-06T04:53:17.215Z,6.35
2022-09-06T04:55:44.267Z,6.45
2022-09-06T04:58:11.249Z,7.05
2022-09-06T05:00:39.003Z,6.93
2022-09-06T05:03:06.159Z,6.97
2022-09-06T05:05:33.391Z,7.60
2022-09-06T05:08:00.416Z,6.55
2022-09-06T05:10:27.589Z,7.80
2022-09-06T05:12:55.304Z,7.22
2022-09-06T05:15:23.397Z,6.47
2022-09-06T05:17:50.578Z,7.28
2022-09-06T05:20:18.523Z,6.30
2022-09-06T05:22:54.373Z,7.60
2022-09-06T05:25:21.825Z,7.85
2022-09-06T05:27:49.163Z,7.32
2022-09-06T05:30:18.092Z,7.25
2022-09-06T05:32:45.329Z,8.05
2022-09-06T05:35:12.384Z,7.45
2022-09-06T05:37:39.588Z,7.78
2022-09-06T05:40:07.519Z,7.32
2022-09-06T05:42:34.763Z,7.25
2022-09-06T05:45:02.397Z,7.18
2022-09-06T05:47:31.236Z,7.78
2022-09-06T05:49:58.362Z,7.05
2022-09-06T05:52:25.403Z,7.10
2022-09-06T05:54:52.511Z,7.63
2022-09-06T05:57:19.706Z,7.07
2022-09-06T05:59:46.771Z,7.15
2022-09-06T06:02:13.932Z,6.85
2022-09-06T06:04:40.933Z,7.57
2022-09-06T06:07:07.943Z,7.10
2022-09-06T06:09:34.924Z,7.82
2022-09-06T06:12:02.108Z,6.93
2022-09-06T06:14:29.117Z,7.10
2022-09-06T06:16:56.312Z,6.90
2022-09-06T06:19:23.424Z,7.32
2022-09-06T06:21:50.457Z,6.90
2022-09-06T06:24:17.551Z,6.13
2022-09-06T06:26:44.926Z,6.57
2022-09-06T06:29:11.926Z,6.57
2022-09-06T06:31:39.472Z,6.38
2022-09-06T06:34:07.350Z,7.13
2022-09-06T06:36:36.732Z,5.93
2022-09-06T06:39:07.396Z,6.13
2022-09-06T06:41:34.709Z,5.53
2022-09-06T06:44:04.576Z,6.03
2022-09-06T06:46:35.603Z,5.18
2022-09-06T06:49:03.409Z,5.18
2022-09-06T06:51:37.207Z,5.70
2022-09-06T06:54:05.756Z,5.50
2022-09-06T06:56:34.928Z,5.15
2022-09-06T06:59:05.865Z,5.18
2022-09-06T07:01:36.018Z,4.82
2022-09-06T07:04:04.387Z,5.32
2022-09-06T07:09:20.251Z,4.90
2022-09-06T07:11:51.337Z,4.72
2022-09-06T07:14:18.878Z,5.55
2022-09-06T07:16:46.306Z,4.68
2022-09-06T07:22:04.423Z,4.65
2022-09-06T07:24:32.843Z,4.25
2022-09-06T07:29:47.007Z,3.67
2022-09-06T07:32:14.023Z,4.00
2022-09-06T07:34:41.727Z,3.63
2022-09-06T07:37:08.822Z,3.50
2022-09-06T07:39:37.136Z,3.72
2022-09-06T07:42:04.644Z,3.03
2022-09-06T07:44:31.690Z,3.40
2022-09-06T07:55:20.115Z,3.03
2022-09-06T07:57:47.142Z,2.58
2022-09-06T08:00:14.400Z,2.40
2022-09-06T08:02:41.499Z,2.60
2022-09-06T08:10:42.872Z,2.17
2022-09-06T08:13:09.946Z,1.77
2022-09-06T08:15:41.125Z,2.00
2022-09-06T08:18:08.705Z,1.80
2022-09-06T08:20:35.942Z,1.70
2022-09-06T08:23:03.042Z,1.88
2022-09-06T08:25:30.036Z,1.80
2022-09-06T08:27:57.122Z,1.70
2022-09-06T08:30:24.131Z,1.40
2022-09-06T08:32:52.347Z,1.70
2022-09-06T08:35:19.371Z,1.50
2022-09-06T08:37:46.552Z,1.40
2022-09-06T08:40:20.132Z,1.23
2022-09-06T08:42:48.340Z,1.60
2022-09-06T08:45:19.531Z,1.35
2022-09-06T08:47:46.671Z,1.40
2022-09-06T08:50:13.719Z,1.50
2022-09-06T08:53:17.291Z,1.40
2022-09-06T08:56:03.561Z,1.50
2022-09-06T08:58:36.377Z,1.50
2022-09-06T09:01:11.577Z,1.40
2022-09-06T09:03:45.848Z,1.50
2022-09-06T09:06:13.138Z,1.17
2022-09-06T09:09:01.737Z,1.83
2022-09-06T09:11:30.356Z,1.30
2022-09-06T09:14:21.547Z,1.83
2022-09-06T09:17:03.419Z,1.50
2022-09-06T09:19:33.569Z,1.40
2022-09-06T09:22:01.692Z,1.50
2022-09-06T09:24:29.093Z,1.38
2022-09-06T09:27:18.541Z,1.80
2022-09-06T09:32:45.914Z,1.50
2022-09-06T09:35:33.960Z,1.58
2022-09-06T09:38:24.224Z,1.65
2022-09-06T09:40:53.032Z,1.35
2022-09-06T09:43:22.939Z,1.65
2022-09-06T09:46:15.835Z,1.90
2022-09-06T09:49:04.578Z,1.85
2022-09-06T09:51:44.143Z,1.75
2022-09-06T09:54:29.931Z,1.70
2022-09-06T09:56:57.989Z,1.60
2022-09-06T09:59:36.877Z,1.67
2022-09-06T10:02:24.942Z,1.88
2022-09-06T10:05:20.081Z,1.95
2022-09-06T10:10:41.765Z,1.90
2022-09-06T10:13:31.626Z,2.20
2022-09-06T10:16:00.655Z,1.75
2022-09-06T10:18:33.444Z,2.00
2022-09-06T10:21:22.769Z,2.40
2022-09-06T10:24:30.682Z,2.13
2022-09-06T10:29:56.782Z,2.08
2022-09-06T10:35:48.403Z,1.83
2022-09-06T10:38:41.040Z,1.90
2022-09-06T10:52:03.823Z,2.22
2022-09-06T10:54:36.741Z,1.85
2022-09-06T11:00:17.174Z,1.70
2022-09-06T11:06:12.754Z,1.80
2022-09-06T11:09:19.389Z,1.83
2022-09-06T11:12:12.684Z,1.70
2022-09-06T11:14:41.326Z,1.70
2022-09-06T11:17:37.590Z,1.80
2022-09-06T11:20:18.108Z,1.70
2022-09-06T11:23:14.447Z,1.45
2022-09-06T11:26:08.491Z,1.77
2022-09-06T11:28:52.706Z,1.58
2022-09-06T11:34:37.350Z,1.90
2022-09-06T11:45:21.410Z,1.40
2022-09-06T11:47:53.844Z,1.35
2022-09-06T11:50:20.682Z,1.30
2022-09-06T11:53:14.382Z,1.50
2022-09-06T11:56:00.281Z,1.33
2022-09-06T11:58:41.720Z,1.70
2022-09-06T12:01:16.573Z,1.70
2022-09-06T12:07:06.918Z,1.55
2022-09-06T12:09:45.524Z,1.42
2022-09-06T12:12:32.445Z,1.58
2022-09-06T12:15:26.966Z,1.60
2022-09-06T12:17:54.220Z,1.35
2022-09-06T12:20:49.391Z,1.50
2022-09-06T12:23:36.532Z,1.70
2022-09-06T12:26:11.506Z,1.80
2022-09-06T12:28:43.783Z,1.73
2022-09-06T12:31:38.818Z,1.60
2022-09-06T12:34:12.115Z,1.63
2022-09-06T12:37:10.670Z,1.67
2022-09-06T12:39:38.068Z,1.90
2022-09-06T12:42:12.994Z,1.70
2022-09-06T12:44:49.152Z,1.80
2022-09-06T12:47:29.331Z,1.80
2022-09-06T12:50:26.031Z,1.80
2022-09-06T12:52:56.678Z,2.50
2022-09-06T12:55:29.605Z,1.70
2022-09-06T12:58:00.614Z,1.90
2022-09-06T13:00:47.448Z,1.77
2022-09-06T13:03:31.590Z,2.10
2022-09-06T13:06:02.307Z,1.45
2022-09-06T13:11:19.700Z,1.85
2022-09-06T13:13:53.736Z,1.92
2022-09-06T13:16:25.454Z,2.17
2022-09-06T13:18:54.190Z,1.70
2022-09-06T13:21:33.399Z,1.60
2022-09-06T13:24:04.060Z,1.65
2022-09-06T13:26:40.054Z,1.80
2022-09-06T13:29:30.886Z,1.70
2022-09-06T13:32:01.957Z,1.92
2022-09-06T13:34:33.926Z,1.80
2022-09-06T13:54:11.898Z,2.05
2022-09-06T13:56:39.345Z,2.15
2022-09-06T13:59:07.954Z,2.28
2022-09-06T14:04:22.474Z,1.70
2022-09-06T14:06:49.985Z,1.85
2022-09-06T14:09:17.143Z,2.00
2022-09-06T14:11:48.245Z,1.83
2022-09-06T14:17:05.193Z,1.55
2022-09-06T14:19:32.709Z,1.90
2022-09-06T14:40:45.456Z,1.48
2022-09-06T14:43:12.575Z,1.83
2022-09-06T14:45:39.872Z,1.50
2022-09-06T14:48:07.186Z,1.52
2022-09-06T14:50:34.585Z,1.65
2022-09-06T14:53:02.508Z,1.60
2022-09-06T14:55:30.217Z,1.52
2022-09-06T14:57:59.079Z,1.30
2022-09-06T15:00:26.193Z,1.40
2022-09-06T15:02:54.550Z,1.38
2022-09-06T15:05:36.593Z,1.70
2022-09-06T15:10:54.844Z,1.60
2022-09-06T15:19:37.319Z,2.30
2022-09-06T15:22:06.265Z,1.73
2022-09-06T15:24:34.529Z,1.38
2022-09-06T15:29:52.941Z,1.50
2022-09-06T15:32:19.969Z,1.42
2022-09-06T15:34:49.283Z,1.42
2022-09-06T15:37:16.318Z,1.45
2022-09-06T15:39:43.332Z,2.80
2022-09-06T15:42:10.409Z,2.10
2022-09-06T15:47:16.134Z,2.50
2022-09-06T15:49:43.243Z,2.00
2022-09-06T15:52:10.717Z,1.90
2022-09-06T15:54:56.395Z,1.92
2022-09-06T15:57:24.359Z,1.85
2022-09-06T15:59:51.448Z,1.92
2022-09-06T16:02:18.485Z,1.50
2022-09-06T16:04:46.298Z,1.60
2022-09-06T16:07:13.582Z,2.45
2022-09-06T16:09:40.637Z,1.50
2022-09-06T16:12:08.598Z,1.50
2022-09-06T16:14:35.747Z,1.30
2022-09-06T16:17:02.789Z,1.60
2022-09-06T16:19:29.926Z,1.42
2022-09-06T16:21:58.717Z,1.50
2022-09-06T16:24:26.561Z,1.40
2022-09-06T16:26:53.601Z,2.03
2022-09-06T16:29:21.517Z,1.30
2022-09-06T16:31:48.706Z,1.58
2022-09-06T16:34:16.371Z,2.30
2022-09-06T16:36:43.803Z,2.47
2022-09-06T16:39:14.359Z,1.65
2022-09-06T16:41:45.844Z,1.50
2022-09-06T16:44:17.580Z,2.53
2022-09-06T16:46:47.035Z,1.60
2022-09-06T16:49:16.880Z,1.60
2022-09-06T16:51:44.815Z,1.60
2022-09-06T16:54:12.192Z,1.50
2022-09-06T16:56:40.086Z,1.60
2022-09-06T16:59:09.636Z,1.52
2022-09-06T17:01:41.388Z,1.50
2022-09-06T17:04:09.618Z,1.60
2022-09-06T17:06:44.060Z,1.58
2022-09-06T17:09:17.725Z,1.80
2022-09-06T17:11:44.984Z,1.80
2022-09-06T17:14:12.007Z,2.10
2022-09-06T17:16:57.830Z,2.42
2022-09-06T17:19:25.285Z,1.85
2022-09-06T17:21:52.450Z,1.90
2022-09-06T17:24:19.826Z,1.83
2022-09-06T17:26:47.227Z,2.28
2022-09-06T17:29:14.296Z,2.00
2022-09-06T17:31:41.328Z,2.00
2022-09-06T17:34:08.347Z,2.30
2022-09-06T17:36:36.476Z,2.47
2022-09-06T17:39:21.025Z,2.30
2022-09-06T17:41:54.355Z,2.25
2022-09-06T17:44:27.731Z,2.00
2022-09-06T17:49:43.208Z,2.30
2022-09-06T17:52:11.095Z,1.77
2022-09-06T17:54:38.216Z,2.78
2022-09-06T17:57:05.228Z,2.22
2022-09-06T17:59:35.534Z,2.17
2022-09-06T18:02:04.871Z,2.17
2022-09-06T18:04:32.163Z,2.30
2022-09-06T18:06:59.282Z,2.25
2022-09-06T18:09:26.331Z,1.98
2022-09-06T18:11:53.390Z,1.92
2022-09-06T18:14:20.943Z,2.90
2022-09-06T18:16:51.145Z,3.13
2022-09-06T18:19:18.832Z,2.25
2022-09-06T18:21:47.212Z,2.28
2022-09-06T18:24:14.779Z,2.30
2022-09-06T18:26:43.034Z,2.22
2022-09-06T18:29:13.152Z,2.15
2022-09-06T18:31:41.195Z,2.28
2022-09-06T18:34:08.898Z,2.10
2022-09-06T18:36:38.016Z,1.90
2022-09-06T18:39:11.356Z,2.13
2022-09-06T18:41:57.236Z,2.58
2022-09-06T18:44:24.296Z,2.13
2022-09-06T18:46:55.791Z,1.83
2022-09-06T18:49:23.110Z,2.20
2022-09-06T18:51:50.670Z,2.20
2022-09-06T18:54:18.088Z,2.13
2022-09-06T18:56:45.122Z,2.00
2022-09-06T18:59:13.917Z,1.85
2022-09-06T19:01:43.070Z,2.10
2022-09-06T19:04:11.448Z,1.80
2022-09-06T19:06:41.147Z,2.58
2022-09-06T19:09:12.563Z,2.50
2022-09-06T19:11:41.567Z,2.13
2022-09-06T19:14:08.679Z,1.90
2022-09-06T19:16:36.262Z,2.40
2022-09-06T19:19:09.864Z,2.35
2022-09-06T19:21:41.630Z,2.70
2022-09-06T19:24:11.755Z,2.25
2022-09-06T19:26:42.361Z,2.58
2022-09-06T19:29:15.787Z,2.50
2022-09-06T19:31:43.866Z,2.55
2022-09-06T19:34:12.287Z,2.50
2022-09-06T19:36:39.472Z,2.65
2022-09-06T19:39:10.260Z,2.90
2022-09-06T19:41:42.998Z,2.75
2022-09-06T19:44:11.960Z,2.53
2022-09-06T19:46:45.885Z,2.10
2022-09-06T19:49:19.354Z,2.20
2022-09-06T19:51:48.920Z,2.78
2022-09-06T19:54:17.098Z,2.83
2022-09-06T19:56:45.195Z,3.05
2022-09-06T19:59:14.466Z,2.80
2022-09-06T20:01:43.322Z,2.55
2022-09-06T20:04:13.264Z,2.75
2022-09-06T20:06:40.694Z,2.17
2022-09-06T20:09:10.071Z,2.25
2022-09-06T20:11:39.315Z,3.20
2022-09-06T20:14:07.687Z,2.45
2022-09-06T20:16:39.374Z,2.78
2022-09-06T20:19:08.536Z,2.53
2022-09-06T20:21:35.396Z,2.25
2022-09-06T20:24:02.793Z,2.25
2022-09-06T20:26:30.578Z,2.30
2022-09-06T20:29:00.065Z,2.42
2022-09-06T20:31:28.897Z,2.80
2022-09-06T20:33:58.032Z,3.40
2022-09-06T20:36:25.359Z,2.30
2022-09-06T20:38:52.473Z,2.80
2022-09-06T20:41:25.744Z,2.47
2022-09-06T20:43:56.028Z,2.25
2022-09-06T20:46:29.117Z,2.53
2022-09-06T20:48:59.736Z,2.58
2022-09-06T20:51:27.021Z,2.25
2022-09-06T20:54:00.835Z,2.30
2022-09-06T20:56:34.404Z,2.30
2022-09-06T20:59:08.612Z,2.42
2022-09-06T21:01:40.610Z,3.20
2022-09-06T21:04:09.899Z,2.58
2022-09-06T21:06:39.509Z,2.63
2022-09-06T21:09:13.202Z,2.65
2022-09-06T21:11:41.087Z,3.13
2022-09-06T21:14:09.450Z,2.65
2022-09-06T21:16:38.769Z,2.83
2022-09-06T21:19:09.295Z,2.85
2022-09-06T21:21:37.283Z,2.70
2022-09-06T21:24:07.220Z,3.45
2022-09-06T21:26:34.573Z,3.03
2022-09-06T21:29:02.171Z,3.60
2022-09-06T21:31:36.299Z,3.13
2022-09-06T21:34:15.700Z,3.33
2022-09-06T21:36:44.418Z,3.70
2022-09-06T21:39:12.751Z,3.17
2022-09-06T21:41:42.313Z,2.92
2022-09-06T21:44:10.420Z,3.33
2022-09-06T21:46:39.267Z,4.18
2022-09-06T21:49:10.291Z,3.72
2022-09-06T21:51:37.853Z,3.03
2022-09-06T21:54:06.753Z,3.10
2022-09-06T21:56:36.209Z,3.70
2022-09-06T21:59:04.220Z,2.50
2022-09-06T22:01:34.482Z,3.78
2022-09-06T22:04:02.417Z,3.72
2022-09-06T22:06:32.623Z,3.15
2022-09-06T22:09:04.585Z,3.70
2022-09-06T22:11:34.329Z,3.03
2022-09-06T22:14:06.098Z,3.00
2022-09-06T22:16:37.015Z,2.85
2022-09-06T22:19:06.385Z,3.65
2022-09-06T22:21:34.292Z,3.65
2022-09-06T22:24:04.862Z,3.80
2022-09-06T22:26:34.984Z,4.78
2022-09-06T22:29:06.094Z,5.40
2022-09-06T22:31:35.862Z,6.03
2022-09-06T22:34:04.093Z,5.82
2022-09-06T22:36:31.887Z,4.68
2022-09-06T22:39:01.698Z,5.47
2022-09-06T22:41:33.238Z,6.07
2022-09-06T22:44:02.681Z,6.10
2022-09-06T22:46:30.837Z,6.70
2022-09-06T22:48:58.706Z,7.70
2022-09-06T22:51:25.879Z,8.18
2022-09-06T22:53:52.937Z,7.32
2022-09-06T22:56:20.068Z,7.97
2022-09-06T22:58:47.168Z,8.00
2022-09-06T23:01:16.688Z,8.30
2022-09-06T23:03:44.762Z,9.02
2022-09-06T23:06:12.196Z,9.00
2022-09-06T23:08:40.862Z,9.35
2022-09-06T23:11:12.473Z,9.73
2022-09-06T23:13:43.591Z,8.70
2022-09-06T23:16:18.492Z,10.20
2022-09-06T23:18:46.857Z,9.75
2022-09-06T23:21:17.467Z,10.95
2022-09-06T23:23:45.353Z,9.68
2022-09-06T23:26:16.867Z,9.43
2022-09-06T23:28:44.479Z,9.20
2022-09-06T23:31:15.768Z,8.15
2022-09-06T23:33:46.133Z,6.78
2022-09-06T23:36:14.896Z,6.55
2022-09-06T23:38:42.975Z,6.07
2022-09-06T23:41:10.850Z,4.93
2022-09-06T23:43:39.574Z,5.35
2022-09-06T23:46:09.719Z,5.35
2022-09-06T23:48:36.947Z,5.15
2022-09-06T23:51:05.194Z,4.38
2022-09-06T23:53:32.860Z,5.93
2022-09-06T23:56:00.327Z,5.88
2022-09-06T23:58:27.760Z,5.07
